createdAt,value
2019-04-07T00:00:38.134Z,34.67
2019-04-07T00:03:12.879Z,34.06
2019-04-07T00:05:47.205Z,34.02
2019-04-07T00:08:21.670Z,34.28
2019-04-07T00:10:57.850Z,34.49
2019-04-07T00:13:50.361Z,33.87
2019-04-07T00:16:46.148Z,34.02
2019-04-07T00:19:20.808Z,33.79
2019-04-07T00:21:55.707Z,33.57
2019-04-07T00:24:29.601Z,33.81
2019-04-07T00:27:04.258Z,33.98
2019-04-07T00:29:39.338Z,33.41
2019-04-07T00:32:14.128Z,32.69
2019-04-07T00:34:48.165Z,31.97
2019-04-07T00:37:23.996Z,31.71
2019-04-07T00:39:57.730Z,32.41
2019-04-07T00:42:32.615Z,32.91
2019-04-07T00:45:08.676Z,32.64
2019-04-07T00:47:44.920Z,32.25
2019-04-07T00:50:18.632Z,32.43
2019-04-07T00:52:53.203Z,32.17
2019-04-07T00:55:28.603Z,31.95
2019-04-07T00:58:02.660Z,32.29
2019-04-07T01:00:36.617Z,32.30
2019-04-07T01:03:11.524Z,32.21
2019-04-07T01:05:48.673Z,31.85
2019-04-07T01:08:22.822Z,31.79
2019-04-07T01:10:57.295Z,31.41
2019-04-07T01:13:33.668Z,31.83
2019-04-07T01:16:09.757Z,32.43
2019-04-07T01:18:44.368Z,32.71
2019-04-07T01:21:20.295Z,32.18
2019-04-07T01:23:54.527Z,31.89
2019-04-07T01:26:29.215Z,31.76
2019-04-07T01:29:09.211Z,31.21
2019-04-07T01:31:44.233Z,31.00
2019-04-07T01:34:18.603Z,31.66
2019-04-07T01:36:52.231Z,31.66
2019-04-07T01:39:27.343Z,31.11
2019-04-07T01:42:01.927Z,31.36
2019-04-07T01:44:35.695Z,30.91
2019-04-07T01:47:11.320Z,30.91
2019-04-07T01:49:45.266Z,30.96
2019-04-07T01:52:19.600Z,30.91
2019-04-07T01:54:53.666Z,31.30
2019-04-07T01:57:28.983Z,30.89
2019-04-07T02:00:04.565Z,30.42
2019-04-07T02:02:39.178Z,30.54
2019-04-07T02:05:14.313Z,30.71
2019-04-07T02:07:48.963Z,30.32
2019-04-07T02:10:22.909Z,30.20
2019-04-07T02:12:56.779Z,29.15
2019-04-07T02:15:30.546Z,29.80
2019-04-07T02:18:04.175Z,29.37
2019-04-07T02:20:48.995Z,29.48
2019-04-07T02:23:22.801Z,29.18
2019-04-07T02:25:56.882Z,29.77
2019-04-07T02:28:30.891Z,30.01
2019-04-07T02:31:04.783Z,30.01
2019-04-07T02:33:39.763Z,29.69
2019-04-07T02:36:21.355Z,29.70
2019-04-07T02:38:50.162Z,28.66
2019-04-07T02:41:24.102Z,29.22
2019-04-07T02:43:57.866Z,28.62
2019-04-07T02:46:31.518Z,28.44
2019-04-07T02:49:05.929Z,27.27
2019-04-07T02:51:40.338Z,27.00
2019-04-07T02:54:14.076Z,27.54
2019-04-07T02:56:48.447Z,28.77
2019-04-07T02:59:23.095Z,28.06
2019-04-07T03:01:58.236Z,27.91
2019-04-07T03:04:33.822Z,28.09
2019-04-07T03:07:07.994Z,28.07
2019-04-07T03:09:42.211Z,28.24
2019-04-07T03:12:15.965Z,27.73
2019-04-07T03:14:50.804Z,27.79
2019-04-07T03:17:25.853Z,27.72
2019-04-07T03:20:00.688Z,27.49
2019-04-07T03:22:34.995Z,27.58
2019-04-07T03:25:15.383Z,27.72
2019-04-07T03:27:48.640Z,27.94
2019-04-07T03:30:25.188Z,27.17
2019-04-07T03:33:01.137Z,26.61
2019-04-07T03:35:37.706Z,26.64
2019-04-07T03:38:13.899Z,26.82
2019-04-07T03:40:49.636Z,26.63
2019-04-07T03:43:24.173Z,26.75
2019-04-07T03:45:59.069Z,26.17
2019-04-07T03:48:33.459Z,26.62
2019-04-07T03:51:08.962Z,25.83
2019-04-07T03:53:43.934Z,26.32
2019-04-07T03:56:20.133Z,27.20
2019-04-07T03:58:55.762Z,26.18
2019-04-07T04:01:31.515Z,26.18
2019-04-07T04:04:06.041Z,26.30
2019-04-07T04:06:40.772Z,26.70
2019-04-07T04:09:15.477Z,25.45
2019-04-07T04:11:53.582Z,25.10
2019-04-07T04:14:27.698Z,24.73
2019-04-07T04:17:02.229Z,24.55
2019-04-07T04:19:36.328Z,24.58
2019-04-07T04:22:10.545Z,24.71
2019-04-07T04:24:44.726Z,24.60
2019-04-07T04:27:18.641Z,25.15
2019-04-07T04:29:53.415Z,25.35
2019-04-07T04:32:28.738Z,23.89
2019-04-07T04:35:03.198Z,23.14
2019-04-07T04:37:44.370Z,23.14
2019-04-07T04:40:11.797Z,23.15
2019-04-07T04:43:04.835Z,23.32
2019-04-07T04:45:40.529Z,22.60
2019-04-07T04:48:15.515Z,22.76
2019-04-07T04:50:50.416Z,21.79
2019-04-07T04:53:25.656Z,22.90
2019-04-07T04:55:59.527Z,22.34
2019-04-07T04:58:33.617Z,21.76
2019-04-07T05:01:09.640Z,21.67
2019-04-07T05:03:43.487Z,21.96
2019-04-07T05:06:17.934Z,22.26
2019-04-07T05:08:54.875Z,23.01
2019-04-07T05:11:31.569Z,22.43
2019-04-07T05:14:05.924Z,21.92
2019-04-07T05:16:39.967Z,21.17
2019-04-07T05:19:14.425Z,20.75
2019-04-07T05:21:48.469Z,21.30
2019-04-07T05:24:22.483Z,21.74
2019-04-07T05:26:57.396Z,20.73
2019-04-07T05:29:31.220Z,21.29
2019-04-07T05:32:06.892Z,20.69
2019-04-07T05:34:41.173Z,21.35
2019-04-07T05:37:14.942Z,20.50
2019-04-07T05:39:48.799Z,21.01
2019-04-07T05:42:23.390Z,20.28
2019-04-07T05:44:58.571Z,21.31
2019-04-07T05:47:32.023Z,20.03
2019-04-07T05:50:06.380Z,19.93
2019-04-07T05:52:40.822Z,20.24
2019-04-07T05:55:15.194Z,20.17
2019-04-07T05:57:52.000Z,20.36
2019-04-07T06:00:25.996Z,20.06
2019-04-07T06:03:04.513Z,20.70
2019-04-07T06:05:38.598Z,20.39
2019-04-07T06:08:24.592Z,20.96
2019-04-07T06:10:50.007Z,20.14
2019-04-07T06:13:24.739Z,20.26
2019-04-07T06:16:00.470Z,19.62
2019-04-07T06:18:36.800Z,19.87
2019-04-07T06:21:14.134Z,20.12
2019-04-07T06:23:46.227Z,20.18
2019-04-07T06:26:20.929Z,20.90
2019-04-07T06:28:58.475Z,21.17
2019-04-07T06:31:33.023Z,21.08
2019-04-07T06:34:10.081Z,21.81
2019-04-07T06:36:41.551Z,21.89
2019-04-07T06:39:17.218Z,21.81
2019-04-07T06:41:50.565Z,22.05
2019-04-07T06:44:26.144Z,21.77
2019-04-07T06:47:03.481Z,21.60
2019-04-07T06:49:35.606Z,21.72
2019-04-07T06:52:09.477Z,21.42
2019-04-07T06:54:43.833Z,22.19
2019-04-07T06:57:18.472Z,21.68
2019-04-07T06:59:52.469Z,21.83
2019-04-07T07:02:27.016Z,22.31
2019-04-07T07:05:05.208Z,22.52
2019-04-07T07:07:38.901Z,22.04
2019-04-07T07:10:26.841Z,22.07
2019-04-07T07:13:00.069Z,21.77
2019-04-07T07:15:34.554Z,21.45
2019-04-07T07:18:08.945Z,21.97
2019-04-07T07:20:46.163Z,21.89
2019-04-07T07:23:20.876Z,22.48
2019-04-07T07:25:55.579Z,22.20
2019-04-07T07:28:29.973Z,22.23
2019-04-07T07:31:05.317Z,22.50
2019-04-07T07:33:42.445Z,22.70
2019-04-07T07:36:17.982Z,22.68
2019-04-07T07:38:59.088Z,22.64
2019-04-07T07:41:26.841Z,21.66
2019-04-07T07:44:03.604Z,21.18
2019-04-07T07:46:38.597Z,21.33
2019-04-07T07:49:13.613Z,21.20
2019-04-07T07:51:48.678Z,21.38
2019-04-07T07:54:22.969Z,21.07
2019-04-07T07:56:58.050Z,20.80
2019-04-07T07:59:37.844Z,21.16
2019-04-07T08:02:11.881Z,21.03
2019-04-07T08:04:49.920Z,20.79
2019-04-07T08:07:23.701Z,20.76
2019-04-07T08:09:58.035Z,20.87
2019-04-07T08:12:34.703Z,20.75
2019-04-07T08:15:09.829Z,19.99
2019-04-07T08:17:45.266Z,19.67
2019-04-07T08:20:19.942Z,19.30
2019-04-07T08:22:54.176Z,18.81
2019-04-07T08:25:29.165Z,18.73
2019-04-07T08:28:06.146Z,18.38
2019-04-07T08:30:43.969Z,18.68
2019-04-07T08:33:18.952Z,18.79
2019-04-07T08:35:56.057Z,18.07
2019-04-07T08:38:31.069Z,18.88
2019-04-07T08:41:08.187Z,17.88
2019-04-07T08:43:42.349Z,18.06
2019-04-07T08:46:18.802Z,18.13
2019-04-07T08:48:56.523Z,18.52
2019-04-07T08:51:32.367Z,18.02
2019-04-07T08:54:07.192Z,18.66
2019-04-07T08:56:42.239Z,18.14
2019-04-07T08:59:18.272Z,18.53
2019-04-07T09:01:54.324Z,18.72
2019-04-07T09:04:30.881Z,19.25
2019-04-07T09:07:05.982Z,19.11
2019-04-07T09:09:45.736Z,19.33
2019-04-07T09:12:19.315Z,19.37
2019-04-07T09:14:55.641Z,19.50
2019-04-07T09:17:39.910Z,19.40
2019-04-07T09:20:12.250Z,20.62
2019-04-07T09:22:47.522Z,20.53
2019-04-07T09:25:22.646Z,20.37
2019-04-07T09:27:58.314Z,20.78
2019-04-07T09:30:34.034Z,20.23
2019-04-07T09:33:09.618Z,20.50
2019-04-07T09:35:52.033Z,20.83
2019-04-07T09:38:30.448Z,21.04
2019-04-07T09:41:08.478Z,20.75
2019-04-07T09:43:51.778Z,20.57
2019-04-07T09:46:27.549Z,20.69
2019-04-07T09:49:03.378Z,20.85
2019-04-07T09:51:41.341Z,21.31
2019-04-07T09:54:17.629Z,20.42
2019-04-07T09:56:51.873Z,21.10
2019-04-07T09:59:26.570Z,21.17
2019-04-07T10:02:02.196Z,21.17
2019-04-07T10:04:38.648Z,21.52
2019-04-07T10:07:15.341Z,21.90
2019-04-07T10:10:03.637Z,22.01
2019-04-07T10:12:30.133Z,21.72
2019-04-07T10:15:05.410Z,21.94
2019-04-07T10:17:43.118Z,21.64
2019-04-07T10:20:23.148Z,21.75
2019-04-07T10:22:58.982Z,21.37
2019-04-07T10:25:36.403Z,21.19
2019-04-07T10:28:12.609Z,21.54
2019-04-07T10:30:48.385Z,21.37
2019-04-07T10:33:23.867Z,21.20
2019-04-07T10:35:59.030Z,21.70
2019-04-07T10:38:39.207Z,21.66
2019-04-07T10:41:14.063Z,22.21
2019-04-07T10:43:48.828Z,21.91
2019-04-07T10:46:23.555Z,22.08
2019-04-07T10:48:57.763Z,22.50
2019-04-07T10:51:36.455Z,22.85
2019-04-07T10:54:14.026Z,23.25
2019-04-07T10:56:49.789Z,22.95
2019-04-07T10:59:25.578Z,22.77
2019-04-07T11:02:01.307Z,23.49
2019-04-07T11:04:40.836Z,23.49
2019-04-07T11:07:17.498Z,23.65
2019-04-07T11:09:52.065Z,23.87
2019-04-07T11:12:27.567Z,24.38
2019-04-07T11:15:02.929Z,23.86
2019-04-07T11:17:38.312Z,23.96
2019-04-07T11:20:14.966Z,23.14
2019-04-07T11:22:50.131Z,22.41
2019-04-07T11:25:28.364Z,22.28
2019-04-07T11:28:11.121Z,22.37
2019-04-07T11:30:45.426Z,22.01
2019-04-07T11:33:20.857Z,22.71
2019-04-07T11:35:55.712Z,23.19
2019-04-07T11:38:35.262Z,23.00
2019-04-07T11:41:10.180Z,23.33
2019-04-07T11:43:46.868Z,24.30
2019-04-07T11:46:27.884Z,22.51
2019-04-07T11:49:04.990Z,23.33
2019-04-07T11:51:40.627Z,23.65
2019-04-07T11:54:16.400Z,23.72
2019-04-07T11:56:53.444Z,23.58
2019-04-07T11:59:29.928Z,24.30
2019-04-07T12:02:07.392Z,24.71
2019-04-07T12:04:43.629Z,24.77
2019-04-07T12:07:20.315Z,24.30
2019-04-07T12:09:55.191Z,24.65
2019-04-07T12:12:32.250Z,24.69
2019-04-07T12:15:09.461Z,25.03
2019-04-07T12:17:45.023Z,25.04
2019-04-07T12:20:29.914Z,24.44
2019-04-07T12:23:03.660Z,24.31
2019-04-07T12:25:40.251Z,24.54
2019-04-07T12:28:17.776Z,24.78
2019-04-07T12:30:52.828Z,25.52
2019-04-07T12:33:28.539Z,25.25
2019-04-07T12:36:11.773Z,25.23
2019-04-07T12:38:47.869Z,24.90
2019-04-07T12:41:23.410Z,24.17
2019-04-07T12:43:59.518Z,25.34
2019-04-07T12:46:37.671Z,24.57
2019-04-07T12:49:13.333Z,24.09
2019-04-07T12:51:53.057Z,23.81
2019-04-07T12:54:24.885Z,24.11
2019-04-07T12:57:05.339Z,23.34
2019-04-07T12:59:39.336Z,23.20
2019-04-07T13:02:17.909Z,22.58
2019-04-07T13:04:59.730Z,22.15
2019-04-07T13:07:48.423Z,21.87
2019-04-07T13:10:21.542Z,22.21
2019-04-07T13:12:59.333Z,21.39
2019-04-07T13:15:35.620Z,21.32
2019-04-07T13:18:16.426Z,21.58
2019-04-07T13:20:57.863Z,22.37
2019-04-07T13:23:34.733Z,22.43
2019-04-07T13:26:10.816Z,22.48
2019-04-07T13:28:47.892Z,22.67
2019-04-07T13:31:24.433Z,22.85
2019-04-07T13:34:01.718Z,22.85
2019-04-07T13:36:35.829Z,23.90
2019-04-07T13:39:13.966Z,23.82
2019-04-07T13:41:53.327Z,23.43
2019-04-07T13:44:28.244Z,23.48
2019-04-07T13:47:06.261Z,23.70
2019-04-07T13:49:39.982Z,24.06
2019-04-07T13:52:19.384Z,25.50
2019-04-07T13:54:52.589Z,25.28
2019-04-07T13:57:28.023Z,25.51
2019-04-07T14:00:04.072Z,26.12
2019-04-07T14:02:39.966Z,25.66
2019-04-07T14:05:17.939Z,25.61
2019-04-07T14:07:57.066Z,26.05
2019-04-07T14:10:36.500Z,25.96
2019-04-07T14:13:09.332Z,26.31
2019-04-07T14:15:44.326Z,26.49
2019-04-07T14:18:21.597Z,27.71
2019-04-07T14:20:57.788Z,27.09
2019-04-07T14:23:33.078Z,27.45
2019-04-07T14:26:10.273Z,26.33
2019-04-07T14:28:45.793Z,26.59
2019-04-07T14:31:20.771Z,26.83
2019-04-07T14:33:55.603Z,27.74
2019-04-07T14:36:30.149Z,27.03
2019-04-07T14:39:05.267Z,27.85
2019-04-07T14:41:41.312Z,27.71
2019-04-07T14:44:18.229Z,28.43
2019-04-07T14:46:52.414Z,28.20
2019-04-07T14:49:27.883Z,28.76
2019-04-07T14:52:02.557Z,28.21
2019-04-07T14:54:38.776Z,28.81
2019-04-07T14:57:15.528Z,28.27
2019-04-07T14:59:52.111Z,28.62
2019-04-07T15:02:26.360Z,28.76
2019-04-07T15:05:01.819Z,28.90
2019-04-07T15:07:36.642Z,29.93
2019-04-07T15:10:16.526Z,29.60
2019-04-07T15:12:50.205Z,29.72
2019-04-07T15:15:26.782Z,29.78
2019-04-07T15:18:01.310Z,30.16
2019-04-07T15:20:35.604Z,30.34
2019-04-07T15:23:11.060Z,30.82
2019-04-07T15:25:46.999Z,30.84
2019-04-07T15:28:21.553Z,31.03
2019-04-07T15:30:56.845Z,31.88
2019-04-07T15:33:38.535Z,32.36
2019-04-07T15:36:12.794Z,32.38
2019-04-07T15:38:47.532Z,32.58
2019-04-07T15:41:22.285Z,32.66
2019-04-07T15:43:57.265Z,32.44
2019-04-07T15:46:30.885Z,32.68
2019-04-07T15:49:07.632Z,33.17
2019-04-07T15:51:43.115Z,32.89
2019-04-07T15:54:20.158Z,33.19
2019-04-07T15:56:55.049Z,32.76
2019-04-07T15:59:30.345Z,32.57
2019-04-07T16:02:08.465Z,28.54
2019-04-07T16:04:41.871Z,28.00
2019-04-07T16:07:18.335Z,27.87
2019-04-07T16:09:56.588Z,26.87
2019-04-07T16:12:28.721Z,27.96
2019-04-07T16:15:02.463Z,27.50
2019-04-07T16:17:37.182Z,28.05
2019-04-07T16:20:22.163Z,27.48
2019-04-07T16:22:51.190Z,28.79
2019-04-07T16:25:27.628Z,27.30
2019-04-07T16:27:59.631Z,28.56
2019-04-07T16:30:40.649Z,28.10
2019-04-07T16:33:16.404Z,28.73
2019-04-07T16:35:55.635Z,28.16
2019-04-07T16:38:31.788Z,28.93
2019-04-07T16:41:06.444Z,28.33
2019-04-07T16:43:42.042Z,28.86
2019-04-07T16:46:22.440Z,29.18
2019-04-07T16:48:52.225Z,29.15
2019-04-07T16:51:27.718Z,29.66
2019-04-07T16:54:01.441Z,28.82
2019-04-07T16:56:35.347Z,28.85
2019-04-07T16:59:10.183Z,29.67
2019-04-07T17:01:45.587Z,29.94
2019-04-07T17:04:20.065Z,29.30
2019-04-07T17:07:01.650Z,29.92
2019-04-07T17:09:33.147Z,29.54
2019-04-07T17:12:09.344Z,30.20
2019-04-07T17:14:42.561Z,29.13
2019-04-07T17:17:20.324Z,29.44
2019-04-07T17:19:51.547Z,29.72
2019-04-07T17:22:25.444Z,29.40
2019-04-07T17:25:01.466Z,29.15
2019-04-07T17:27:35.212Z,29.25
2019-04-07T17:30:17.241Z,29.44
2019-04-07T17:32:52.059Z,28.64
2019-04-07T17:35:27.511Z,29.70
2019-04-07T17:38:05.177Z,29.91
2019-04-07T17:40:37.796Z,30.01
2019-04-07T17:43:11.850Z,30.70
2019-04-07T17:45:46.172Z,30.68
2019-04-07T17:48:21.371Z,29.71
2019-04-07T17:50:55.299Z,29.75
2019-04-07T17:53:29.634Z,30.29
2019-04-07T17:56:03.604Z,30.73
2019-04-07T17:58:39.431Z,30.12
2019-04-07T18:01:12.718Z,30.58
2019-04-07T18:03:47.318Z,30.90
2019-04-07T18:06:21.527Z,30.86
2019-04-07T18:09:05.992Z,31.79
2019-04-07T18:11:30.549Z,31.46
2019-04-07T18:14:05.744Z,31.74
2019-04-07T18:16:39.603Z,32.23
2019-04-07T18:19:14.085Z,32.46
2019-04-07T18:21:51.939Z,32.04
2019-04-07T18:24:22.708Z,31.79
2019-04-07T18:26:56.560Z,32.38
2019-04-07T18:29:31.891Z,32.27
2019-04-07T18:32:05.102Z,32.13
2019-04-07T18:34:39.690Z,32.84
2019-04-07T18:37:13.449Z,33.46
2019-04-07T18:39:52.351Z,33.25
2019-04-07T18:42:22.004Z,33.99
2019-04-07T18:44:55.586Z,33.66
2019-04-07T18:47:31.518Z,33.72
2019-04-07T18:50:07.594Z,33.59
2019-04-07T18:52:40.979Z,34.18
2019-04-07T18:55:14.851Z,34.80
2019-04-07T18:57:48.849Z,34.92
2019-04-07T19:00:22.654Z,34.63
2019-04-07T19:02:56.536Z,34.76
2019-04-07T19:05:33.394Z,35.35
2019-04-07T19:08:05.178Z,35.75
2019-04-07T19:10:38.951Z,36.00
2019-04-07T19:13:17.105Z,36.23
2019-04-07T19:15:47.775Z,36.11
2019-04-07T19:18:22.487Z,36.77
2019-04-07T19:20:56.108Z,36.34
2019-04-07T19:23:30.240Z,36.88
2019-04-07T19:26:04.237Z,37.60
2019-04-07T19:28:38.279Z,38.05
2019-04-07T19:31:16.246Z,38.90
2019-04-07T19:33:47.392Z,38.67
2019-04-07T19:36:23.664Z,39.14
2019-04-07T19:38:56.174Z,39.19
2019-04-07T19:41:32.220Z,39.74
2019-04-07T19:44:04.827Z,40.84
2019-04-07T19:46:38.583Z,41.08
2019-04-07T19:49:15.038Z,41.43
2019-04-07T19:51:48.262Z,41.76
2019-04-07T19:54:22.124Z,42.19
2019-04-07T19:56:55.572Z,43.17
2019-04-07T19:59:30.103Z,44.45
2019-04-07T20:02:03.771Z,44.20
2019-04-07T20:04:37.384Z,44.30
2019-04-07T20:07:10.924Z,44.41
2019-04-07T20:09:46.789Z,44.97
2019-04-07T20:12:20.743Z,45.28
2019-04-07T20:15:01.331Z,45.95
2019-04-07T20:17:29.918Z,47.02
2019-04-07T20:20:04.136Z,47.47
2019-04-07T20:22:38.086Z,48.41
2019-04-07T20:25:16.005Z,48.99
2019-04-07T20:27:47.006Z,52.01
2019-04-07T20:30:21.250Z,51.51
2019-04-07T20:32:56.751Z,51.58
2019-04-07T20:35:31.491Z,52.92
2019-04-07T20:38:06.187Z,53.03
2019-04-07T20:40:44.061Z,51.06
2019-04-07T20:43:15.346Z,51.05
2019-04-07T20:45:50.045Z,52.38
2019-04-07T20:48:23.739Z,52.75
2019-04-07T20:50:58.268Z,52.89
2019-04-07T20:53:33.689Z,54.50
2019-04-07T20:56:11.548Z,54.60
2019-04-07T20:58:48.729Z,55.18
2019-04-07T21:01:22.013Z,55.08
2019-04-07T21:03:53.064Z,55.24
2019-04-07T21:06:29.513Z,57.42
2019-04-07T21:09:02.757Z,57.21
2019-04-07T21:11:37.662Z,58.79
2019-04-07T21:14:11.394Z,59.87
2019-04-07T21:16:45.205Z,60.55
2019-04-07T21:19:18.792Z,61.53
2019-04-07T21:21:54.031Z,61.83
2019-04-07T21:24:27.664Z,61.68
2019-04-07T21:27:02.453Z,61.76
2019-04-07T21:29:38.580Z,62.31
2019-04-07T21:32:10.833Z,62.12
2019-04-07T21:34:44.992Z,62.43
2019-04-07T21:37:18.693Z,62.21
2019-04-07T21:39:53.874Z,61.81
2019-04-07T21:42:27.456Z,61.36
2019-04-07T21:45:04.273Z,61.54
2019-04-07T21:47:36.534Z,61.57
2019-04-07T21:50:15.882Z,62.00
2019-04-07T21:52:52.937Z,61.46
2019-04-07T21:55:25.347Z,61.70
2019-04-07T21:57:59.773Z,61.07
2019-04-07T22:00:34.859Z,63.87
2019-04-07T22:03:08.844Z,64.38
2019-04-07T22:05:43.272Z,63.78
2019-04-07T22:08:19.071Z,64.72
2019-04-07T22:10:53.731Z,64.04
2019-04-07T22:13:32.885Z,63.29
2019-04-07T22:16:04.256Z,62.77
2019-04-07T22:18:42.973Z,62.30
2019-04-07T22:21:19.169Z,61.67
2019-04-07T22:23:55.012Z,61.14
2019-04-07T22:26:28.448Z,60.68
2019-04-07T22:29:03.868Z,59.74
2019-04-07T22:31:38.730Z,60.27
2019-04-07T22:34:14.735Z,58.46
2019-04-07T22:36:47.966Z,57.40
2019-04-07T22:39:22.574Z,55.70
2019-04-07T22:41:57.091Z,53.03
2019-04-07T22:44:35.533Z,51.33
2019-04-07T22:47:12.016Z,51.30
2019-04-07T22:49:45.141Z,49.31
2019-04-07T22:52:18.937Z,50.99
2019-04-07T22:54:52.637Z,51.06
2019-04-07T22:57:27.123Z,50.91
2019-04-07T23:00:02.393Z,50.50
2019-04-07T23:02:36.127Z,49.65
2019-04-07T23:05:10.002Z,49.28
2019-04-07T23:07:43.811Z,50.96
2019-04-07T23:10:17.748Z,50.55
2019-04-07T23:12:51.326Z,49.94
2019-04-07T23:15:37.257Z,50.50
2019-04-07T23:17:59.906Z,52.13
2019-04-07T23:20:33.639Z,52.44
2019-04-07T23:23:07.098Z,52.62
2019-04-07T23:25:40.728Z,53.22
2019-04-07T23:28:14.570Z,52.87
2019-04-07T23:30:49.194Z,52.86
2019-04-07T23:33:22.976Z,52.23
2019-04-07T23:35:59.868Z,52.29
2019-04-07T23:38:34.599Z,52.28
2019-04-07T23:41:10.118Z,51.31
2019-04-07T23:43:43.936Z,50.77
2019-04-07T23:46:23.139Z,49.96
2019-04-07T23:48:53.905Z,49.98
2019-04-07T23:51:28.785Z,49.52
2019-04-07T23:54:19.493Z,50.86
2019-04-07T23:56:54.013Z,50.03
2019-04-07T23:59:29.107Z,49.03
